Terminal Aerodrome Forecast
Issued by NWS Omaha/Valley, NE

Home | Current Version | Previous Version | Graphics & Text | Print | Product List | Glossary On
Versions: 1 2 3 4 5 6 7 8 9 10 11 12 13 14 15 16 17 18 19 20 21 22 23 24 25 26 27 28 29 30 31 32 33 34 35 36 37 38 39 40
000
FTUS43 KOAX 260520
TAFOFK
TAF
KOFK 260520Z 2606/2706 17009KT P6SM VCTS BKN090CB
      TEMPO 2606/2609 VRB15G35KT 4SM TSRA OVC040CB
     FM261000 13006KT P6SM -SHRA OVC050
     FM261500 06007KT P6SM SHRA VCTS BKN030CB
     FM261800 03008KT P6SM VCSH BKN025
     FM262200 01010KT P6SM SCT015 BKN035=

USA.gov is the U.S. government's official web portal to all federal, state and local government web resources and services.